createdAt,value
2023-04-02T00:01:07.103Z,97537.63
2023-04-02T00:06:40.305Z,97541.47
2023-04-02T00:11:46.625Z,97541.47
2023-04-02T00:16:50.610Z,97548.47
2023-04-02T00:21:57.817Z,97527.06
2023-04-02T00:27:01.777Z,97528.00
2023-04-02T00:32:06.405Z,97552.06
2023-04-02T00:37:23.794Z,97555.56
2023-04-02T00:42:29.357Z,97566.13
2023-04-02T00:47:36.809Z,97569.59
2023-04-02T00:52:43.346Z,97564.41
2023-04-02T00:57:47.918Z,97559.34
2023-04-02T01:03:30.392Z,97561.84
2023-04-02T01:08:50.289Z,97555.06
2023-04-02T01:14:00.165Z,97563.75
2023-04-02T01:19:15.231Z,97558.75
2023-04-02T01:24:21.644Z,97554.25
2023-04-02T01:29:30.714Z,97562.97
2023-04-02T01:34:35.096Z,97557.81
2023-04-02T01:40:01.516Z,97556.94
2023-04-02T01:45:12.383Z,97568.47
2023-04-02T01:50:27.020Z,97585.44
2023-04-02T01:55:40.718Z,97586.59
2023-04-02T02:00:51.083Z,97587.38
2023-04-02T02:05:55.927Z,97584.97
2023-04-02T02:11:00.876Z,97584.06
2023-04-02T02:16:06.484Z,97582.34
2023-04-02T02:21:12.030Z,97569.28
2023-04-02T02:26:16.818Z,97581.50
2023-04-02T02:31:28.001Z,97596.22
2023-04-02T02:36:40.227Z,97585.75
2023-04-02T02:41:48.636Z,97587.56
2023-04-02T02:46:58.437Z,97586.69
2023-04-02T02:52:14.195Z,97588.50
2023-04-02T02:57:29.116Z,97583.13
2023-04-02T03:02:38.620Z,97592.69
2023-04-02T03:07:45.176Z,97595.28
2023-04-02T03:12:54.246Z,97595.06
2023-04-02T03:18:03.464Z,97592.56
2023-04-02T03:23:19.308Z,97597.72
2023-04-02T03:28:29.368Z,97608.03
2023-04-02T03:33:39.749Z,97605.44
2023-04-02T03:38:48.632Z,97601.00
2023-04-02T03:43:57.721Z,97613.13
2023-04-02T03:49:09.068Z,97607.25
2023-04-02T03:54:17.226Z,97614.22
2023-04-02T03:59:28.312Z,97616.63
2023-04-02T04:04:36.077Z,97619.31
2023-04-02T04:09:43.020Z,97619.31
2023-04-02T04:14:54.203Z,97622.69
2023-04-02T04:20:08.675Z,97632.50
2023-04-02T04:25:23.581Z,97637.81
2023-04-02T04:30:36.431Z,97637.69
2023-04-02T04:35:48.402Z,97641.44
2023-04-02T04:40:57.073Z,97658.66
2023-04-02T04:46:07.510Z,97658.56
2023-04-02T04:51:21.098Z,97668.56
2023-04-02T04:56:28.067Z,97664.25
2023-04-02T05:01:46.529Z,97673.53
2023-04-02T05:06:56.509Z,97692.63
2023-04-02T05:12:12.080Z,97678.63
2023-04-02T05:17:20.862Z,97688.94
2023-04-02T05:22:34.553Z,97685.34
2023-04-02T05:27:46.622Z,97698.22
2023-04-02T05:32:57.626Z,97693.88
2023-04-02T05:38:07.074Z,97695.34
2023-04-02T05:43:16.502Z,97692.59
2023-04-02T05:48:26.728Z,97711.63
2023-04-02T05:53:36.192Z,97721.03
2023-04-02T05:58:46.329Z,97722.47
2023-04-02T06:04:12.933Z,97734.28
2023-04-02T06:09:25.507Z,97721.81
2023-04-02T06:14:29.374Z,97724.53
2023-04-02T06:19:37.473Z,97739.47
2023-04-02T06:24:43.057Z,97736.69
2023-04-02T06:29:51.928Z,97748.88
2023-04-02T06:34:56.560Z,97740.16
2023-04-02T06:40:02.253Z,97751.44
2023-04-02T06:45:08.123Z,97751.22
2023-04-02T06:50:44.516Z,97750.75
2023-04-02T06:55:53.938Z,97765.56
2023-04-02T07:01:02.191Z,97762.72
2023-04-02T07:06:19.287Z,97771.41
2023-04-02T07:11:26.320Z,97767.78
2023-04-02T07:16:36.808Z,97772.50
2023-04-02T07:21:40.537Z,97783.94
2023-04-02T07:26:47.707Z,97781.31
2023-04-02T07:31:52.991Z,97780.31
2023-04-02T07:36:56.571Z,97774.56
2023-04-02T07:42:03.197Z,97781.88
2023-04-02T07:47:07.491Z,97795.88
2023-04-02T07:52:11.486Z,97798.94
2023-04-02T07:57:16.576Z,97803.25
2023-04-02T08:02:21.555Z,97793.25
2023-04-02T08:07:24.952Z,97817.47
2023-04-02T08:12:29.995Z,97809.91
2023-04-02T08:17:33.798Z,97828.88
2023-04-02T08:22:37.295Z,97838.97
2023-04-02T08:27:42.101Z,97831.03
2023-04-02T08:32:45.823Z,97835.06
2023-04-02T08:37:49.527Z,97834.84
2023-04-02T08:43:14.579Z,97839.25
2023-04-02T08:48:18.279Z,97848.97
2023-04-02T08:53:24.498Z,97839.31
2023-04-02T08:58:41.627Z,97855.25
2023-04-02T09:03:48.522Z,97872.22
2023-04-02T09:08:54.317Z,97870.69
2023-04-02T09:14:01.889Z,97880.66
2023-04-02T09:19:17.216Z,97885.22
2023-04-02T09:24:20.830Z,97884.91
2023-04-02T09:29:41.194Z,97878.69
2023-04-02T09:34:44.577Z,97895.53
2023-04-02T09:39:48.154Z,97891.03
2023-04-02T09:44:53.249Z,97894.13
2023-04-02T09:49:56.675Z,97903.47
2023-04-02T09:55:21.967Z,97917.63
2023-04-02T10:00:41.526Z,97908.41
2023-04-02T10:05:46.592Z,97919.88
2023-04-02T10:10:55.156Z,97937.88
2023-04-02T10:16:04.820Z,97946.97
2023-04-02T10:21:11.821Z,97946.41
2023-04-02T10:26:31.203Z,97950.13
2023-04-02T10:31:55.443Z,97957.97
2023-04-02T10:37:15.902Z,97969.06
2023-04-02T10:42:28.143Z,97978.16
2023-04-02T10:47:46.343Z,97984.03
2023-04-02T10:53:02.882Z,97989.81
2023-04-02T10:59:23.771Z,97989.34
2023-04-02T11:04:44.059Z,97992.72
2023-04-02T11:09:52.569Z,97998.03
2023-04-02T11:15:13.953Z,98000.41
2023-04-02T11:21:01.061Z,98005.03
2023-04-02T11:26:48.145Z,98012.16
2023-04-02T11:32:20.171Z,98023.06
2023-04-02T11:37:37.897Z,98027.50
2023-04-02T11:42:45.689Z,98024.38
2023-04-02T11:48:25.604Z,98013.06
2023-04-02T11:53:35.220Z,98018.72
2023-04-02T11:58:57.950Z,98025.94
2023-04-02T12:04:29.656Z,98033.38
2023-04-02T12:09:49.138Z,98033.78
2023-04-02T12:15:05.390Z,98040.53
2023-04-02T12:20:25.117Z,98038.69
2023-04-02T12:25:34.876Z,98050.66
2023-04-02T12:30:41.125Z,98047.03
2023-04-02T12:35:50.130Z,98050.28
2023-04-02T12:41:00.813Z,98040.66
2023-04-02T12:46:11.875Z,98050.66
2023-04-02T12:51:17.693Z,98047.38
2023-04-02T12:56:27.546Z,98043.53
2023-04-02T13:01:35.600Z,98043.31
2023-04-02T13:06:44.757Z,98045.16
2023-04-02T13:11:52.836Z,98037.97
2023-04-02T13:16:59.734Z,98033.16
2023-04-02T13:22:26.981Z,98037.06
2023-04-02T13:27:34.752Z,98044.31
2023-04-02T13:32:43.050Z,98030.06
2023-04-02T13:37:48.035Z,98023.63
2023-04-02T13:42:55.008Z,98005.56
2023-04-02T13:48:01.886Z,98015.13
2023-04-02T13:53:10.532Z,98013.34
2023-04-02T13:58:19.631Z,98013.97
2023-04-02T14:03:25.770Z,98021.06
2023-04-02T14:08:40.639Z,98015.44
2023-04-02T14:14:07.939Z,98010.72
2023-04-02T14:19:28.731Z,98012.69
2023-04-02T14:24:45.532Z,98010.56
2023-04-02T14:30:03.912Z,98012.00
2023-04-02T14:35:18.294Z,98010.66
2023-04-02T14:40:27.934Z,98015.72
2023-04-02T14:45:49.960Z,98013.97
2023-04-02T14:51:02.776Z,98023.91
2023-04-02T14:56:10.803Z,98023.88
2023-04-02T15:01:38.418Z,98029.28
2023-04-02T15:07:09.029Z,98025.38
2023-04-02T15:12:23.836Z,98023.63
2023-04-02T15:17:35.334Z,98026.22
2023-04-02T15:22:49.692Z,98034.72
2023-04-02T15:28:16.067Z,98041.81
2023-04-02T15:33:54.034Z,98039.22
2023-04-02T15:39:15.596Z,98039.81
2023-04-02T15:44:22.362Z,98046.06
2023-04-02T15:49:45.283Z,98041.78
2023-04-02T15:55:14.892Z,98055.75
2023-04-02T16:00:28.579Z,98051.25
2023-04-02T16:05:43.095Z,98061.56
2023-04-02T16:10:51.624Z,98066.56
2023-04-02T16:16:04.051Z,98071.16
2023-04-02T16:21:09.287Z,98073.47
2023-04-02T16:26:33.816Z,98067.97
2023-04-02T16:31:51.269Z,98079.03
2023-04-02T16:37:03.166Z,98078.53
2023-04-02T16:42:21.366Z,98084.13
2023-04-02T16:47:57.196Z,98082.03
2023-04-02T17:00:27.691Z,98084.09
2023-04-02T17:11:53.277Z,98103.31
2023-04-02T17:17:06.665Z,98100.09
2023-04-02T17:22:15.904Z,98107.34
2023-04-02T17:27:27.688Z,98112.91
2023-04-02T17:32:34.587Z,98120.91
2023-04-02T17:37:45.941Z,98126.03
2023-04-02T17:42:56.726Z,98123.69
2023-04-02T17:48:06.076Z,98129.09
2023-04-02T17:53:20.632Z,98130.91
2023-04-02T17:58:56.600Z,98137.94
2023-04-02T18:04:13.714Z,98145.25
2023-04-02T18:09:38.235Z,98155.13
2023-04-02T18:15:03.037Z,98170.16
2023-04-02T18:20:21.982Z,98174.53
2023-04-02T18:25:45.898Z,98169.44
2023-04-02T18:30:57.341Z,98171.13
2023-04-02T18:36:07.383Z,98167.91
2023-04-02T18:41:30.327Z,98166.31
2023-04-02T18:46:40.905Z,98173.25
2023-04-02T18:51:46.097Z,98176.72
2023-04-02T18:56:49.574Z,98193.44
2023-04-02T19:01:56.171Z,98196.91
2023-04-02T19:07:08.767Z,98195.19
2023-04-02T19:12:17.060Z,98189.91
2023-04-02T19:17:28.079Z,98187.31
2023-04-02T19:22:46.226Z,98198.53
2023-04-02T19:28:03.573Z,98195.88
2023-04-02T19:33:15.970Z,98198.41
2023-04-02T19:38:47.968Z,98200.19
2023-04-02T19:43:51.922Z,98202.03
2023-04-02T19:49:04.234Z,98210.78
2023-04-02T19:54:09.093Z,98210.78
2023-04-02T19:59:18.226Z,98210.88
2023-04-02T20:04:22.560Z,98205.94
2023-04-02T20:09:27.461Z,98198.97
2023-04-02T20:14:31.028Z,98205.00
2023-04-02T20:19:34.756Z,98204.03
2023-04-02T20:24:41.074Z,98208.41
2023-04-02T20:29:44.520Z,98202.28
2023-04-02T20:34:48.299Z,98199.69
2023-04-02T20:39:53.282Z,98203.25
2023-04-02T20:44:56.970Z,98202.28
2023-04-02T20:50:00.686Z,98199.94
2023-04-02T20:55:06.475Z,98200.72
2023-04-02T21:00:12.269Z,98204.38
2023-04-02T21:05:15.860Z,98211.25
2023-04-02T21:10:21.338Z,98219.88
2023-04-02T21:15:24.795Z,98227.56
2023-04-02T21:20:28.197Z,98215.53
2023-04-02T21:25:33.281Z,98222.47
2023-04-02T21:30:36.683Z,98222.47
2023-04-02T21:35:40.156Z,98219.97
2023-04-02T21:40:45.047Z,98228.56
2023-04-02T21:45:48.380Z,98234.75
2023-04-02T21:50:51.722Z,98239.84
2023-04-02T21:56:03.501Z,98236.28
2023-04-02T22:01:11.533Z,98224.22
2023-04-02T22:06:25.525Z,98227.69
2023-04-02T22:11:32.953Z,98218.13
2023-04-02T22:16:37.010Z,98215.75
2023-04-02T22:21:41.562Z,98214.03
2023-04-02T22:26:47.067Z,98227.91
2023-04-02T22:31:50.468Z,98215.78
2023-04-02T22:36:54.245Z,98209.81
2023-04-02T22:41:59.088Z,98202.88
2023-04-02T22:47:02.480Z,98198.59
2023-04-02T22:52:06.209Z,98196.00
2023-04-02T22:57:11.579Z,98206.44
2023-04-02T23:02:15.093Z,98215.22
2023-04-02T23:07:18.732Z,98209.16
2023-04-02T23:12:23.592Z,98211.13
2023-04-02T23:17:27.307Z,98210.28
2023-04-02T23:22:30.761Z,98198.34
2023-04-02T23:27:35.956Z,98188.09
2023-04-02T23:32:39.382Z,98188.13
2023-04-02T23:37:43.314Z,98183.75
2023-04-02T23:42:48.464Z,98181.16
2023-04-02T23:47:51.862Z,98190.53
2023-04-02T23:52:55.253Z,98189.81
2023-04-02T23:58:00.000Z,98185.47
